createdAt,value
2023-04-15T00:00:58.931Z,7.10
2023-04-15T00:03:25.738Z,7.00
2023-04-15T00:05:52.712Z,6.60
2023-04-15T00:08:19.869Z,7.40
2023-04-15T00:10:46.849Z,6.70
2023-04-15T00:13:14.750Z,7.30
2023-04-15T00:15:42.552Z,7.10
2023-04-15T00:18:09.283Z,7.10
2023-04-15T00:20:36.525Z,7.30
2023-04-15T00:23:03.488Z,7.30
2023-04-15T00:25:30.292Z,7.50
2023-04-15T00:27:57.064Z,9.40
2023-04-15T00:30:25.130Z,8.00
2023-04-15T00:32:52.129Z,8.00
2023-04-15T00:35:18.733Z,6.80
2023-04-15T00:37:46.322Z,6.60
2023-04-15T00:40:13.924Z,6.70
2023-04-15T00:42:40.695Z,6.50
2023-04-15T00:45:08.514Z,6.50
2023-04-15T00:47:37.161Z,7.30
2023-04-15T00:50:05.060Z,7.30
2023-04-15T00:52:31.924Z,7.00
2023-04-15T00:54:59.900Z,7.60
2023-04-15T00:57:28.681Z,7.40
2023-04-15T00:59:56.191Z,7.50
2023-04-15T01:02:23.892Z,6.70
2023-04-15T01:04:51.350Z,6.40
2023-04-15T01:07:18.059Z,6.90
2023-04-15T01:09:45.084Z,7.10
2023-04-15T01:12:15.697Z,7.10
2023-04-15T01:14:42.718Z,6.30
2023-04-15T01:17:09.468Z,6.40
2023-04-15T01:19:36.836Z,7.70
2023-04-15T01:22:04.912Z,6.70
2023-04-15T01:24:33.507Z,7.40
2023-04-15T01:27:00.570Z,8.10
2023-04-15T01:29:27.275Z,7.80
2023-04-15T01:31:56.220Z,8.40
2023-04-15T01:34:23.102Z,7.70
2023-04-15T01:36:50.560Z,8.50
2023-04-15T01:39:17.206Z,8.10
2023-04-15T01:41:44.003Z,8.60
2023-04-15T01:44:11.106Z,7.90
2023-04-15T01:46:38.025Z,8.60
2023-04-15T01:49:04.852Z,12.60
2023-04-15T01:51:31.516Z,10.10
2023-04-15T01:53:58.421Z,8.60
2023-04-15T01:56:25.789Z,9.30
2023-04-15T01:58:52.701Z,9.60
2023-04-15T02:01:19.415Z,9.70
2023-04-15T02:03:47.191Z,8.80
2023-04-15T02:06:14.440Z,8.40
2023-04-15T02:08:41.144Z,9.30
2023-04-15T02:11:07.836Z,9.00
2023-04-15T02:13:34.513Z,8.00
2023-04-15T02:16:02.982Z,9.00
2023-04-15T02:18:29.885Z,8.50
2023-04-15T02:20:57.914Z,8.60
2023-04-15T02:23:24.863Z,8.70
2023-04-15T02:25:53.407Z,9.10
2023-04-15T02:28:21.506Z,8.70
2023-04-15T02:30:53.752Z,7.60
2023-04-15T02:33:21.335Z,8.30
2023-04-15T02:35:48.182Z,7.80
2023-04-15T02:38:17.206Z,8.00
2023-04-15T02:40:43.913Z,7.60
2023-04-15T02:43:11.051Z,7.50
2023-04-15T02:45:37.807Z,8.40
2023-04-15T02:48:05.873Z,7.40
2023-04-15T02:50:32.619Z,8.30
2023-04-15T02:53:00.780Z,7.50
2023-04-15T02:55:28.080Z,7.90
2023-04-15T02:57:55.011Z,9.00
2023-04-15T03:00:21.922Z,8.40
2023-04-15T03:02:51.680Z,9.20
2023-04-15T03:05:18.465Z,8.60
2023-04-15T03:07:45.139Z,8.60
2023-04-15T03:10:11.981Z,8.60
2023-04-15T03:12:38.901Z,8.70
2023-04-15T03:15:07.616Z,9.50
2023-04-15T03:17:34.873Z,8.70
2023-04-15T03:20:04.461Z,8.40
2023-04-15T03:22:32.356Z,8.90
2023-04-15T03:24:59.165Z,10.00
2023-04-15T03:27:25.869Z,11.10
2023-04-15T03:29:52.484Z,11.90
2023-04-15T03:32:19.407Z,11.50
2023-04-15T03:34:46.201Z,11.30
2023-04-15T03:37:13.046Z,11.90
2023-04-15T03:39:40.090Z,12.40
2023-04-15T03:42:06.761Z,12.80
2023-04-15T03:44:33.433Z,13.30
2023-04-15T03:47:00.214Z,11.00
2023-04-15T03:49:26.866Z,9.80
2023-04-15T03:51:53.558Z,10.30
2023-04-15T03:54:20.227Z,9.60
2023-04-15T03:56:46.979Z,9.60
2023-04-15T03:59:13.640Z,8.50
2023-04-15T04:01:40.325Z,8.70
2023-04-15T04:04:07.080Z,8.70
2023-04-15T04:06:34.028Z,7.70
2023-04-15T04:09:01.212Z,7.60
2023-04-15T04:11:28.198Z,6.50
2023-04-15T04:13:54.943Z,7.00
2023-04-15T04:16:21.630Z,6.90
2023-04-15T04:18:48.648Z,6.20
2023-04-15T04:21:16.277Z,6.30
2023-04-15T04:23:43.049Z,5.70
2023-04-15T04:26:09.947Z,5.80
2023-04-15T04:28:36.652Z,5.50
2023-04-15T04:31:03.339Z,5.60
2023-04-15T04:33:30.005Z,5.80
2023-04-15T04:35:56.683Z,4.60
2023-04-15T04:38:23.274Z,4.50
2023-04-15T04:40:50.148Z,5.10
2023-04-15T04:43:16.832Z,4.10
2023-04-15T04:45:43.626Z,3.60
2023-04-15T04:48:10.876Z,3.80
2023-04-15T04:50:37.708Z,3.50
2023-04-15T04:53:04.359Z,4.00
2023-04-15T04:55:31.388Z,3.70
2023-04-15T04:57:58.049Z,3.50
2023-04-15T05:00:24.810Z,3.40
2023-04-15T05:02:51.654Z,3.00
2023-04-15T05:05:18.469Z,2.80
2023-04-15T05:07:45.405Z,2.90
2023-04-15T05:10:12.305Z,2.50
2023-04-15T05:12:39.068Z,2.30
2023-04-15T05:15:07.316Z,2.40
2023-04-15T05:17:34.744Z,2.10
2023-04-15T05:20:02.917Z,1.80
2023-04-15T05:22:29.920Z,2.40
2023-04-15T05:24:56.770Z,2.20
2023-04-15T05:27:24.387Z,2.00
2023-04-15T05:29:51.122Z,2.20
2023-04-15T05:32:18.158Z,2.10
2023-04-15T05:34:44.961Z,1.80
2023-04-15T05:37:12.156Z,2.30
2023-04-15T05:39:38.923Z,2.10
2023-04-15T05:42:05.696Z,2.30
2023-04-15T05:44:32.431Z,2.20
2023-04-15T05:46:59.198Z,2.30
2023-04-15T05:49:26.877Z,2.30
2023-04-15T05:51:53.572Z,3.60
2023-04-15T05:54:22.585Z,2.90
2023-04-15T05:56:49.258Z,2.80
2023-04-15T05:59:16.183Z,3.10
2023-04-15T06:01:43.294Z,2.90
2023-04-15T06:04:10.883Z,3.60
2023-04-15T06:06:38.102Z,4.50
2023-04-15T06:09:04.801Z,3.90
2023-04-15T06:11:31.587Z,4.00
2023-04-15T06:13:58.229Z,4.20
2023-04-15T06:16:24.991Z,3.60
2023-04-15T06:18:51.710Z,3.90
2023-04-15T06:21:18.742Z,4.30
2023-04-15T06:23:45.699Z,4.10
2023-04-15T06:26:12.311Z,3.60
2023-04-15T06:28:38.960Z,3.40
2023-04-15T06:31:05.788Z,4.20
2023-04-15T06:33:32.471Z,3.80
2023-04-15T06:35:59.194Z,3.60
2023-04-15T06:38:26.029Z,3.80
2023-04-15T06:40:52.852Z,3.80
2023-04-15T06:43:19.601Z,4.10
2023-04-15T06:45:46.639Z,4.20
2023-04-15T06:48:13.540Z,4.00
2023-04-15T06:50:40.830Z,3.70
2023-04-15T06:53:07.585Z,3.80
2023-04-15T06:55:34.249Z,3.50
2023-04-15T06:58:01.140Z,3.60
2023-04-15T07:00:28.125Z,3.20
2023-04-15T07:02:56.037Z,3.60
2023-04-15T07:05:22.761Z,3.60
2023-04-15T07:07:49.753Z,2.80
2023-04-15T07:10:16.746Z,3.20
2023-04-15T07:12:43.430Z,2.80
2023-04-15T07:15:10.838Z,2.40
2023-04-15T07:17:37.868Z,2.90
2023-04-15T07:20:05.497Z,6.70
2023-04-15T07:22:32.558Z,2.90
2023-04-15T07:24:59.267Z,2.50
2023-04-15T07:27:26.570Z,2.40
2023-04-15T07:29:53.269Z,2.20
2023-04-15T07:32:20.331Z,2.20
2023-04-15T07:34:47.169Z,1.90
2023-04-15T07:37:15.092Z,1.80
2023-04-15T07:39:42.244Z,1.80
2023-04-15T07:42:09.838Z,1.50
2023-04-15T07:44:36.628Z,1.90
2023-04-15T07:47:03.692Z,2.10
2023-04-15T07:49:30.853Z,2.00
2023-04-15T07:51:59.427Z,1.70
2023-04-15T07:54:27.011Z,1.70
2023-04-15T07:56:53.727Z,1.80
2023-04-15T07:59:21.076Z,2.60
2023-04-15T08:01:48.492Z,2.00
2023-04-15T08:04:15.821Z,1.70
2023-04-15T08:06:42.783Z,1.70
2023-04-15T08:09:09.799Z,2.30
2023-04-15T08:11:36.922Z,1.70
2023-04-15T08:14:03.867Z,2.00
2023-04-15T08:16:30.731Z,1.70
2023-04-15T08:18:58.128Z,1.60
2023-04-15T08:21:25.414Z,2.10
2023-04-15T08:23:53.932Z,1.90
2023-04-15T08:26:21.664Z,2.00
2023-04-15T08:28:49.116Z,2.40
2023-04-15T08:31:18.141Z,2.40
2023-04-15T08:33:45.655Z,2.20
2023-04-15T08:36:13.252Z,2.50
2023-04-15T08:38:40.587Z,1.90
2023-04-15T08:41:16.708Z,2.10
2023-04-15T08:44:01.426Z,1.90
2023-04-15T08:46:31.405Z,1.90
2023-04-15T08:48:58.499Z,2.10
2023-04-15T08:51:26.581Z,1.60
2023-04-15T08:53:54.319Z,1.60
2023-04-15T08:56:26.201Z,1.80
2023-04-15T08:58:53.505Z,2.00
2023-04-15T09:01:21.022Z,1.80
2023-04-15T09:03:52.253Z,2.40
2023-04-15T09:06:21.116Z,2.30
2023-04-15T09:08:48.675Z,1.70
2023-04-15T09:11:18.876Z,1.40
2023-04-15T09:16:13.875Z,1.60
2023-04-15T09:18:40.565Z,1.80
2023-04-15T09:21:16.814Z,1.90
2023-04-15T09:24:00.121Z,1.90
2023-04-15T09:26:36.358Z,2.40
2023-04-15T09:29:09.382Z,2.10
2023-04-15T09:31:37.706Z,2.00
2023-04-15T09:34:05.177Z,2.00
2023-04-15T09:36:58.162Z,2.00
2023-04-15T09:39:25.000Z,2.40
2023-04-15T09:42:07.552Z,2.10
2023-04-15T09:44:34.436Z,2.20
2023-04-15T09:47:01.623Z,2.20
2023-04-15T09:49:28.655Z,2.20
2023-04-15T09:52:06.136Z,2.00
2023-04-15T09:54:38.218Z,2.10
2023-04-15T09:57:09.474Z,1.90
2023-04-15T09:59:36.322Z,2.30
2023-04-15T10:02:06.833Z,2.00
2023-04-15T10:04:40.849Z,2.10
2023-04-15T10:07:12.321Z,2.20
2023-04-15T10:12:05.635Z,2.50
2023-04-15T10:14:35.618Z,2.80
2023-04-15T10:17:05.040Z,2.60
2023-04-15T10:19:36.480Z,2.50
2023-04-15T10:24:33.930Z,2.50
2023-04-15T10:27:03.827Z,2.30
2023-04-15T10:29:30.968Z,2.30
2023-04-15T10:32:00.031Z,2.40
2023-04-15T10:34:27.586Z,2.60
2023-04-15T10:37:02.960Z,2.40
2023-04-15T10:39:32.488Z,2.30
2023-04-15T10:42:07.253Z,1.90
2023-04-15T10:44:37.349Z,2.30
2023-04-15T10:47:19.589Z,2.10
2023-04-15T10:49:58.566Z,1.90
2023-04-15T10:52:27.942Z,2.10
2023-04-15T10:55:17.203Z,2.10
2023-04-15T10:57:44.872Z,2.30
2023-04-15T11:00:16.651Z,2.00
2023-04-15T11:02:48.601Z,1.90
2023-04-15T11:05:17.809Z,2.30
2023-04-15T11:07:56.305Z,1.90
2023-04-15T11:10:26.307Z,2.00
2023-04-15T11:12:57.501Z,2.20
2023-04-15T11:15:42.448Z,2.40
2023-04-15T11:18:12.757Z,2.40
2023-04-15T11:20:44.609Z,2.00
2023-04-15T11:23:14.511Z,2.00
2023-04-15T11:25:43.452Z,2.40
2023-04-15T11:28:12.468Z,2.30
2023-04-15T11:30:41.824Z,2.00
2023-04-15T11:33:11.730Z,2.40
2023-04-15T11:35:41.582Z,2.20
2023-04-15T11:38:13.095Z,2.10
2023-04-15T11:40:41.258Z,2.10
2023-04-15T11:43:18.077Z,2.30
2023-04-15T11:46:00.564Z,2.60
2023-04-15T11:48:36.365Z,3.70
2023-04-15T11:51:06.625Z,2.60
2023-04-15T11:53:41.936Z,2.90
2023-04-15T11:56:20.389Z,2.20
2023-04-15T11:58:50.116Z,2.10
2023-04-15T12:01:17.018Z,2.30
2023-04-15T12:03:48.750Z,2.10
2023-04-15T12:06:21.183Z,2.30
2023-04-15T12:09:08.993Z,2.40
2023-04-15T12:11:46.997Z,2.10
2023-04-15T12:14:22.801Z,2.70
2023-04-15T12:16:58.028Z,2.00
2023-04-15T12:19:32.082Z,2.20
2023-04-15T12:22:06.017Z,2.10
2023-04-15T12:24:35.526Z,2.30
2023-04-15T12:27:07.849Z,2.70
2023-04-15T12:29:38.088Z,2.10
2023-04-15T12:32:08.460Z,1.90
2023-04-15T12:34:38.855Z,2.00
2023-04-15T12:37:09.375Z,2.30
2023-04-15T12:39:41.557Z,1.90
2023-04-15T12:42:09.780Z,2.20
2023-04-15T12:44:38.101Z,1.90
2023-04-15T12:47:06.091Z,2.00
2023-04-15T12:49:33.032Z,1.80
2023-04-15T12:52:02.095Z,1.90
2023-04-15T12:54:30.813Z,2.00
2023-04-15T12:56:58.548Z,2.00
2023-04-15T12:59:25.821Z,2.20
2023-04-15T13:01:53.093Z,2.10
2023-04-15T13:04:20.815Z,2.10
2023-04-15T13:06:47.814Z,2.30
2023-04-15T13:09:15.045Z,2.20
2023-04-15T13:11:41.975Z,2.10
2023-04-15T13:14:12.375Z,2.60
2023-04-15T13:16:39.148Z,2.00
2023-04-15T13:19:05.842Z,2.70
2023-04-15T13:21:34.568Z,2.50
2023-04-15T13:24:02.170Z,2.40
2023-04-15T13:26:29.036Z,1.80
2023-04-15T13:28:56.091Z,1.80
2023-04-15T13:31:22.766Z,1.80
2023-04-15T13:33:49.594Z,2.50
2023-04-15T13:36:16.289Z,1.80
2023-04-15T13:38:43.186Z,1.70
2023-04-15T13:41:10.316Z,1.40
2023-04-15T13:43:40.123Z,1.50
2023-04-15T13:46:06.786Z,1.40
2023-04-15T13:48:33.611Z,1.50
2023-04-15T13:51:00.461Z,1.30
2023-04-15T13:53:33.902Z,1.40
2023-04-15T13:56:07.583Z,1.50
2023-04-15T13:58:34.371Z,1.50
2023-04-15T14:01:03.232Z,1.50
2023-04-15T14:03:32.510Z,1.40
2023-04-15T14:05:59.630Z,1.40
2023-04-15T14:08:26.477Z,1.60
2023-04-15T14:10:53.103Z,1.40
2023-04-15T14:13:20.056Z,1.30
2023-04-15T14:15:47.010Z,1.70
2023-04-15T14:18:13.994Z,1.50
2023-04-15T14:20:40.703Z,1.60
2023-04-15T14:23:07.538Z,1.60
2023-04-15T14:25:34.431Z,1.70
2023-04-15T14:28:02.732Z,1.80
2023-04-15T14:30:29.530Z,1.80
2023-04-15T14:32:56.455Z,1.70
2023-04-15T14:35:25.958Z,1.60
2023-04-15T14:37:53.720Z,1.70
2023-04-15T14:40:20.998Z,1.90
2023-04-15T14:42:47.733Z,1.90
2023-04-15T14:45:14.504Z,1.70
2023-04-15T14:47:41.543Z,1.50
2023-04-15T14:50:09.458Z,1.90
2023-04-15T14:52:39.068Z,1.80
2023-04-15T14:55:10.838Z,2.30
2023-04-15T14:57:39.595Z,1.90
2023-04-15T15:00:09.787Z,1.70
2023-04-15T15:02:40.291Z,1.70
2023-04-15T15:05:09.620Z,1.60
2023-04-15T15:07:38.255Z,1.60
2023-04-15T15:10:06.522Z,1.90
2023-04-15T15:12:33.631Z,1.60
2023-04-15T15:15:01.630Z,1.60
2023-04-15T15:17:30.568Z,1.80
2023-04-15T15:19:57.501Z,2.50
2023-04-15T15:22:25.547Z,1.80
2023-04-15T15:24:52.924Z,1.50
2023-04-15T15:27:19.961Z,1.90
2023-04-15T15:29:46.700Z,1.50
2023-04-15T15:32:13.356Z,1.90
2023-04-15T15:34:40.384Z,2.10
2023-04-15T15:37:07.083Z,1.90
2023-04-15T15:39:34.888Z,2.00
2023-04-15T15:42:01.601Z,2.30
2023-04-15T15:44:28.294Z,1.80
2023-04-15T15:46:55.030Z,2.10
2023-04-15T15:49:21.995Z,2.30
2023-04-15T15:51:49.289Z,1.90
2023-04-15T15:54:15.942Z,2.00
2023-04-15T15:56:42.679Z,2.20
2023-04-15T15:59:09.367Z,1.80
2023-04-15T16:01:36.076Z,2.50
2023-04-15T16:04:02.979Z,1.70
2023-04-15T16:06:31.708Z,2.70
2023-04-15T16:08:59.546Z,2.00
2023-04-15T16:11:26.503Z,2.40
2023-04-15T16:13:53.898Z,2.70
2023-04-15T16:16:21.538Z,2.20
2023-04-15T16:18:48.318Z,2.40
2023-04-15T16:21:15.405Z,2.50
2023-04-15T16:23:42.103Z,2.70
2023-04-15T16:26:08.866Z,2.40
2023-04-15T16:28:35.644Z,2.60
2023-04-15T16:31:02.383Z,3.00
2023-04-15T16:33:29.136Z,3.00
2023-04-15T16:35:55.833Z,2.80
2023-04-15T16:38:22.573Z,2.70
2023-04-15T16:40:49.281Z,3.00
2023-04-15T16:43:16.270Z,3.40
2023-04-15T16:45:44.752Z,3.10
2023-04-15T16:48:11.703Z,3.10
2023-04-15T16:50:38.409Z,3.40
2023-04-15T16:53:05.105Z,3.60
2023-04-15T16:55:31.769Z,3.10
2023-04-15T16:58:02.320Z,3.20
2023-04-15T17:00:36.182Z,2.90
2023-04-15T17:03:05.701Z,3.00
2023-04-15T17:05:32.976Z,3.20
2023-04-15T17:07:59.715Z,3.30
2023-04-15T17:10:27.023Z,3.60
2023-04-15T17:12:56.868Z,3.50
2023-04-15T17:15:24.408Z,3.60
2023-04-15T17:17:51.184Z,3.60
2023-04-15T17:20:19.025Z,3.80
2023-04-15T17:22:45.715Z,3.50
2023-04-15T17:25:13.695Z,3.80
2023-04-15T17:27:40.808Z,3.80
2023-04-15T17:30:08.514Z,4.20
2023-04-15T17:32:36.036Z,4.80
2023-04-15T17:35:05.756Z,5.10
2023-04-15T17:37:33.862Z,4.60
2023-04-15T17:40:01.142Z,4.80
2023-04-15T17:42:28.145Z,4.80
2023-04-15T17:44:54.907Z,5.00
2023-04-15T17:47:21.608Z,4.90
2023-04-15T17:49:48.388Z,5.20
2023-04-15T17:52:15.118Z,5.30
2023-04-15T17:54:41.970Z,5.00
2023-04-15T17:57:09.009Z,5.50
2023-04-15T17:59:35.735Z,6.00
2023-04-15T18:02:02.570Z,5.70
2023-04-15T18:04:29.726Z,6.30
2023-04-15T18:06:56.571Z,6.00
2023-04-15T18:09:23.238Z,5.60
2023-04-15T18:11:49.897Z,5.90
2023-04-15T18:14:30.704Z,6.00
2023-04-15T18:17:02.441Z,6.70
2023-04-15T18:19:30.200Z,6.30
2023-04-15T18:21:59.253Z,6.80
2023-04-15T18:24:25.969Z,6.80
2023-04-15T18:26:53.266Z,7.20
2023-04-15T18:29:20.075Z,7.60
2023-04-15T18:31:46.939Z,7.10
2023-04-15T18:34:13.761Z,7.20
2023-04-15T18:36:40.595Z,6.90
2023-04-15T18:39:07.560Z,7.20
2023-04-15T18:41:34.608Z,7.30
2023-04-15T18:44:01.366Z,7.50
2023-04-15T18:46:28.543Z,6.80
2023-04-15T18:48:55.479Z,8.20
2023-04-15T18:51:22.292Z,8.10
2023-04-15T18:53:49.154Z,7.70
2023-04-15T18:56:15.989Z,7.90
2023-04-15T18:59:09.286Z,7.80
2023-04-15T19:01:31.369Z,8.40
2023-04-15T19:03:58.791Z,8.00
2023-04-15T19:06:26.506Z,7.50
2023-04-15T19:08:53.533Z,7.90
2023-04-15T19:11:20.258Z,8.40
2023-04-15T19:13:46.996Z,8.70
2023-04-15T19:16:13.738Z,8.30
2023-04-15T19:18:40.459Z,7.80
2023-04-15T19:21:07.152Z,8.30
2023-04-15T19:23:33.944Z,8.50
2023-04-15T19:26:02.056Z,8.50
2023-04-15T19:28:30.283Z,8.40
2023-04-15T19:30:57.927Z,8.20
2023-04-15T19:33:30.390Z,8.50
2023-04-15T19:36:03.712Z,8.20
2023-04-15T19:38:31.934Z,8.70
2023-04-15T19:40:58.785Z,8.40
2023-04-15T19:43:25.540Z,8.50
2023-04-15T19:45:53.902Z,8.90
2023-04-15T19:48:22.267Z,8.60
2023-04-15T19:50:49.114Z,8.40
2023-04-15T19:53:15.857Z,8.30
2023-04-15T19:55:42.796Z,8.50
2023-04-15T19:58:09.789Z,8.80
2023-04-15T20:00:36.416Z,7.80
2023-04-15T20:03:04.109Z,7.80
2023-04-15T20:05:31.162Z,8.20
2023-04-15T20:07:59.841Z,8.70
2023-04-15T20:10:26.878Z,8.30
2023-04-15T20:12:53.671Z,9.20
2023-04-15T20:15:22.827Z,8.30
2023-04-15T20:17:50.091Z,9.30
2023-04-15T20:20:17.078Z,9.20
2023-04-15T20:22:43.696Z,8.60
2023-04-15T20:25:10.635Z,8.20
2023-04-15T20:27:37.400Z,7.70
2023-04-15T20:30:05.314Z,7.60
2023-04-15T20:32:34.744Z,8.10
2023-04-15T20:35:03.050Z,7.80
2023-04-15T20:37:32.439Z,7.00
2023-04-15T20:40:00.461Z,6.60
2023-04-15T20:42:27.236Z,6.50
2023-04-15T20:44:54.093Z,6.60
2023-04-15T20:47:20.929Z,5.90
2023-04-15T20:49:47.872Z,5.80
2023-04-15T20:52:14.523Z,6.30
2023-04-15T20:54:41.167Z,5.40
2023-04-15T20:57:07.936Z,5.00
2023-04-15T20:59:35.254Z,5.60
2023-04-15T21:02:02.108Z,5.60
2023-04-15T21:04:29.041Z,6.00
2023-04-15T21:06:55.690Z,5.30
2023-04-15T21:09:22.413Z,4.90
2023-04-15T21:14:19.186Z,4.60
2023-04-15T21:16:46.057Z,4.80
2023-04-15T21:19:12.868Z,4.70
2023-04-15T21:21:39.576Z,4.50
2023-04-15T21:24:07.153Z,5.30
2023-04-15T21:26:35.339Z,4.40
2023-04-15T21:29:02.341Z,4.90
2023-04-15T21:31:29.422Z,4.60
2023-04-15T21:33:56.127Z,4.60
2023-04-15T21:36:22.788Z,4.50
2023-04-15T21:38:49.714Z,4.80
2023-04-15T21:41:16.618Z,4.60
2023-04-15T21:43:43.407Z,4.40
2023-04-15T21:46:23.724Z,4.50
2023-04-15T21:48:54.899Z,4.60
2023-04-15T21:51:21.962Z,4.50
2023-04-15T21:53:48.798Z,4.20
2023-04-15T21:56:15.553Z,4.40
2023-04-15T21:58:42.480Z,4.80
2023-04-15T22:01:09.300Z,4.00
2023-04-15T22:03:36.232Z,4.10
2023-04-15T22:06:03.789Z,4.40
2023-04-15T22:08:41.632Z,4.80
2023-04-15T22:11:29.817Z,4.50
2023-04-15T22:13:58.287Z,4.70
2023-04-15T22:16:26.304Z,4.50
2023-04-15T22:18:54.238Z,4.00
2023-04-15T22:21:21.084Z,4.20
2023-04-15T22:23:48.945Z,4.10
2023-04-15T22:26:15.765Z,3.60
2023-04-15T22:28:42.466Z,3.90
2023-04-15T22:31:09.851Z,3.60
2023-04-15T22:33:36.729Z,4.00
2023-04-15T22:36:03.567Z,4.00
2023-04-15T22:38:30.431Z,3.50
2023-04-15T22:40:57.562Z,4.00
2023-04-15T22:43:25.411Z,3.30
2023-04-15T22:45:55.864Z,3.50
2023-04-15T22:48:22.858Z,3.60
2023-04-15T22:50:49.855Z,3.60
2023-04-15T22:53:17.319Z,3.60
2023-04-15T22:55:46.321Z,4.20
2023-04-15T22:58:14.643Z,3.60
2023-04-15T23:00:41.430Z,3.50
2023-04-15T23:03:08.428Z,3.30
2023-04-15T23:05:35.912Z,3.80
2023-04-15T23:08:02.961Z,3.20
2023-04-15T23:10:29.984Z,3.20
2023-04-15T23:12:56.622Z,3.50
2023-04-15T23:15:24.011Z,3.40
2023-04-15T23:17:50.756Z,3.50
2023-04-15T23:20:17.893Z,3.20
2023-04-15T23:22:44.744Z,3.30
2023-04-15T23:25:11.385Z,3.00
2023-04-15T23:27:38.017Z,3.10
2023-04-15T23:30:06.087Z,3.10
2023-04-15T23:32:32.851Z,3.00
2023-04-15T23:34:59.526Z,3.30
2023-04-15T23:37:26.158Z,3.70
2023-04-15T23:39:55.042Z,3.20
2023-04-15T23:42:22.646Z,3.40
2023-04-15T23:44:50.007Z,2.90
2023-04-15T23:47:16.649Z,3.00
2023-04-15T23:49:43.489Z,3.00
2023-04-15T23:52:10.153Z,3.90
2023-04-15T23:54:36.817Z,2.90
2023-04-15T23:57:03.689Z,3.40
2023-04-15T23:59:30.339Z,3.10
